sensor_id;sensor_type;location;lat;lon;timestamp;P1;durP1;ratioP1;P2;durP2;ratioP2
5569;SDS011;2808;51.240;6.794;2023-07-02T00:00:11;10.17;;;4.07;;
5569;SDS011;2808;51.240;6.794;2023-07-02T00:02:40;7.67;;;3.20;;
5569;SDS011;2808;51.240;6.794;2023-07-02T00:05:08;7.80;;;3.63;;
5569;SDS011;2808;51.240;6.794;2023-07-02T00:07:35;10.60;;;3.27;;
5569;SDS011;2808;51.240;6.794;2023-07-02T00:10:03;8.30;;;3.10;;
5569;SDS011;2808;51.240;6.794;2023-07-02T00:12:31;6.97;;;2.80;;
5569;SDS011;2808;51.240;6.794;2023-07-02T00:14:58;8.60;;;3.10;;
5569;SDS011;2808;51.240;6.794;2023-07-02T00:17:26;6.80;;;3.27;;
5569;SDS011;2808;51.240;6.794;2023-07-02T00:19:55;17.43;;;3.33;;
5569;SDS011;2808;51.240;6.794;2023-07-02T00:22:22;9.07;;;3.33;;
5569;SDS011;2808;51.240;6.794;2023-07-02T00:24:49;6.53;;;3.10;;
5569;SDS011;2808;51.240;6.794;2023-07-02T00:27:20;8.80;;;3.30;;
5569;SDS011;2808;51.240;6.794;2023-07-02T00:29:48;7.40;;;3.07;;
5569;SDS011;2808;51.240;6.794;2023-07-02T00:32:15;8.90;;;3.60;;
5569;SDS011;2808;51.240;6.794;2023-07-02T00:34:42;10.07;;;3.40;;
5569;SDS011;2808;51.240;6.794;2023-07-02T00:37:11;11.63;;;3.73;;
5569;SDS011;2808;51.240;6.794;2023-07-02T00:39:40;9.03;;;3.20;;
5569;SDS011;2808;51.240;6.794;2023-07-02T00:42:07;11.03;;;3.80;;
5569;SDS011;2808;51.240;6.794;2023-07-02T00:44:36;8.37;;;3.20;;
5569;SDS011;2808;51.240;6.794;2023-07-02T00:47:06;9.33;;;3.40;;
5569;SDS011;2808;51.240;6.794;2023-07-02T00:49:33;12.23;;;3.60;;
5569;SDS011;2808;51.240;6.794;2023-07-02T00:52:01;9.60;;;4.13;;
5569;SDS011;2808;51.240;6.794;2023-07-02T00:54:30;8.97;;;3.67;;
5569;SDS011;2808;51.240;6.794;2023-07-02T00:56:58;10.10;;;4.20;;
5569;SDS011;2808;51.240;6.794;2023-07-02T00:59:27;14.30;;;4.37;;
5569;SDS011;2808;51.240;6.794;2023-07-02T01:01:55;20.77;;;4.73;;
5569;SDS011;2808;51.240;6.794;2023-07-02T01:04:23;10.60;;;4.33;;
5569;SDS011;2808;51.240;6.794;2023-07-02T01:06:52;12.53;;;4.03;;
5569;SDS011;2808;51.240;6.794;2023-07-02T01:09:22;11.50;;;4.13;;
5569;SDS011;2808;51.240;6.794;2023-07-02T01:11:53;13.80;;;4.53;;
5569;SDS011;2808;51.240;6.794;2023-07-02T01:14:23;15.80;;;5.13;;
5569;SDS011;2808;51.240;6.794;2023-07-02T01:16:52;20.60;;;6.20;;
5569;SDS011;2808;51.240;6.794;2023-07-02T01:19:22;21.63;;;5.87;;
5569;SDS011;2808;51.240;6.794;2023-07-02T01:22:08;20.23;;;5.70;;
5569;SDS011;2808;51.240;6.794;2023-07-02T01:24:35;12.57;;;5.37;;
5569;SDS011;2808;51.240;6.794;2023-07-02T01:27:04;12.43;;;5.20;;
5569;SDS011;2808;51.240;6.794;2023-07-02T01:29:32;13.53;;;5.80;;
5569;SDS011;2808;51.240;6.794;2023-07-02T01:32:01;13.50;;;6.07;;
5569;SDS011;2808;51.240;6.794;2023-07-02T01:34:29;14.27;;;6.40;;
5569;SDS011;2808;51.240;6.794;2023-07-02T01:36:58;20.53;;;6.37;;
5569;SDS011;2808;51.240;6.794;2023-07-02T01:39:25;19.17;;;6.73;;
5569;SDS011;2808;51.240;6.794;2023-07-02T01:41:54;19.93;;;6.87;;
5569;SDS011;2808;51.240;6.794;2023-07-02T01:44:32;19.50;;;6.90;;
5569;SDS011;2808;51.240;6.794;2023-07-02T01:47:00;19.70;;;6.57;;
5569;SDS011;2808;51.240;6.794;2023-07-02T01:49:27;18.03;;;6.80;;
5569;SDS011;2808;51.240;6.794;2023-07-02T01:51:55;23.63;;;7.30;;
5569;SDS011;2808;51.240;6.794;2023-07-02T01:54:25;18.90;;;7.20;;
5569;SDS011;2808;51.240;6.794;2023-07-02T01:56:53;20.43;;;7.53;;
5569;SDS011;2808;51.240;6.794;2023-07-02T01:59:20;17.93;;;6.70;;
5569;SDS011;2808;51.240;6.794;2023-07-02T02:01:47;18.83;;;7.53;;
5569;SDS011;2808;51.240;6.794;2023-07-02T02:04:15;18.13;;;7.27;;
5569;SDS011;2808;51.240;6.794;2023-07-02T02:06:43;18.13;;;8.03;;
5569;SDS011;2808;51.240;6.794;2023-07-02T02:09:10;26.87;;;8.47;;
5569;SDS011;2808;51.240;6.794;2023-07-02T02:11:41;22.50;;;7.43;;
5569;SDS011;2808;51.240;6.794;2023-07-02T02:14:10;23.33;;;7.97;;
5569;SDS011;2808;51.240;6.794;2023-07-02T02:16:37;17.77;;;7.70;;
5569;SDS011;2808;51.240;6.794;2023-07-02T02:19:05;21.83;;;8.47;;
5569;SDS011;2808;51.240;6.794;2023-07-02T02:21:32;21.90;;;7.93;;
5569;SDS011;2808;51.240;6.794;2023-07-02T02:24:00;21.70;;;8.60;;
5569;SDS011;2808;51.240;6.794;2023-07-02T02:26:27;24.17;;;9.20;;
5569;SDS011;2808;51.240;6.794;2023-07-02T02:28:56;20.67;;;9.10;;
5569;SDS011;2808;51.240;6.794;2023-07-02T02:31:23;21.50;;;8.83;;
5569;SDS011;2808;51.240;6.794;2023-07-02T02:33:50;23.53;;;9.30;;
5569;SDS011;2808;51.240;6.794;2023-07-02T02:36:18;21.33;;;9.20;;
5569;SDS011;2808;51.240;6.794;2023-07-02T02:38:45;28.57;;;9.67;;
5569;SDS011;2808;51.240;6.794;2023-07-02T02:41:13;26.80;;;10.37;;
5569;SDS011;2808;51.240;6.794;2023-07-02T02:43:41;26.20;;;9.80;;
5569;SDS011;2808;51.240;6.794;2023-07-02T02:46:10;31.27;;;10.23;;
5569;SDS011;2808;51.240;6.794;2023-07-02T02:48:37;24.50;;;9.23;;
5569;SDS011;2808;51.240;6.794;2023-07-02T02:51:04;30.00;;;9.60;;
5569;SDS011;2808;51.240;6.794;2023-07-02T02:53:32;26.27;;;9.87;;
5569;SDS011;2808;51.240;6.794;2023-07-02T02:55:59;28.10;;;11.10;;
5569;SDS011;2808;51.240;6.794;2023-07-02T02:58:26;29.37;;;10.17;;
5569;SDS011;2808;51.240;6.794;2023-07-02T03:00:54;28.90;;;10.37;;
5569;SDS011;2808;51.240;6.794;2023-07-02T03:03:22;29.70;;;10.30;;
5569;SDS011;2808;51.240;6.794;2023-07-02T03:05:50;27.37;;;10.70;;
5569;SDS011;2808;51.240;6.794;2023-07-02T03:08:17;28.10;;;11.00;;
5569;SDS011;2808;51.240;6.794;2023-07-02T03:10:44;30.10;;;11.80;;
5569;SDS011;2808;51.240;6.794;2023-07-02T03:13:12;25.53;;;9.97;;
5569;SDS011;2808;51.240;6.794;2023-07-02T03:15:39;24.47;;;11.67;;
5569;SDS011;2808;51.240;6.794;2023-07-02T03:18:06;22.07;;;10.10;;
5569;SDS011;2808;51.240;6.794;2023-07-02T03:20:35;26.50;;;10.80;;
5569;SDS011;2808;51.240;6.794;2023-07-02T03:23:03;35.00;;;12.13;;
5569;SDS011;2808;51.240;6.794;2023-07-02T03:25:30;28.33;;;11.87;;
5569;SDS011;2808;51.240;6.794;2023-07-02T03:27:57;23.30;;;11.10;;
5569;SDS011;2808;51.240;6.794;2023-07-02T03:30:25;29.60;;;12.20;;
5569;SDS011;2808;51.240;6.794;2023-07-02T03:32:52;38.00;;;13.07;;
5569;SDS011;2808;51.240;6.794;2023-07-02T03:35:19;25.40;;;11.40;;
5569;SDS011;2808;51.240;6.794;2023-07-02T03:37:48;28.90;;;12.20;;
5569;SDS011;2808;51.240;6.794;2023-07-02T03:40:15;30.33;;;13.03;;
5569;SDS011;2808;51.240;6.794;2023-07-02T03:42:43;28.00;;;12.60;;
5569;SDS011;2808;51.240;6.794;2023-07-02T03:45:10;32.47;;;14.17;;
5569;SDS011;2808;51.240;6.794;2023-07-02T03:47:38;28.27;;;12.47;;
5569;SDS011;2808;51.240;6.794;2023-07-02T03:50:05;45.03;;;13.20;;
5569;SDS011;2808;51.240;6.794;2023-07-02T03:52:33;37.43;;;13.00;;
5569;SDS011;2808;51.240;6.794;2023-07-02T03:55:02;36.80;;;13.30;;
5569;SDS011;2808;51.240;6.794;2023-07-02T03:57:30;24.10;;;12.10;;
5569;SDS011;2808;51.240;6.794;2023-07-02T03:59:57;34.07;;;14.33;;
5569;SDS011;2808;51.240;6.794;2023-07-02T04:02:24;31.80;;;12.87;;
5569;SDS011;2808;51.240;6.794;2023-07-02T04:04:52;34.20;;;13.20;;
5569;SDS011;2808;51.240;6.794;2023-07-02T04:07:19;36.27;;;13.50;;
5569;SDS011;2808;51.240;6.794;2023-07-02T04:09:47;43.93;;;17.60;;
5569;SDS011;2808;51.240;6.794;2023-07-02T04:12:15;36.50;;;16.83;;
5569;SDS011;2808;51.240;6.794;2023-07-02T04:14:43;50.50;;;17.10;;
5569;SDS011;2808;51.240;6.794;2023-07-02T04:17:10;33.50;;;15.90;;
5569;SDS011;2808;51.240;6.794;2023-07-02T04:19:38;36.97;;;15.00;;
5569;SDS011;2808;51.240;6.794;2023-07-02T04:22:05;33.93;;;15.27;;
5569;SDS011;2808;51.240;6.794;2023-07-02T04:24:33;34.87;;;14.30;;
5569;SDS011;2808;51.240;6.794;2023-07-02T04:27:00;39.70;;;16.30;;
5569;SDS011;2808;51.240;6.794;2023-07-02T04:29:29;44.90;;;17.20;;
5569;SDS011;2808;51.240;6.794;2023-07-02T04:31:56;35.67;;;15.23;;
5569;SDS011;2808;51.240;6.794;2023-07-02T04:34:23;36.23;;;15.40;;
5569;SDS011;2808;51.240;6.794;2023-07-02T04:36:51;39.77;;;15.40;;
5569;SDS011;2808;51.240;6.794;2023-07-02T04:39:18;41.17;;;14.97;;
5569;SDS011;2808;51.240;6.794;2023-07-02T04:41:46;36.00;;;14.90;;
5569;SDS011;2808;51.240;6.794;2023-07-02T04:44:17;39.70;;;16.43;;
5569;SDS011;2808;51.240;6.794;2023-07-02T04:46:55;35.63;;;14.73;;
5569;SDS011;2808;51.240;6.794;2023-07-02T04:49:24;36.83;;;14.13;;
5569;SDS011;2808;51.240;6.794;2023-07-02T04:51:51;32.40;;;15.90;;
5569;SDS011;2808;51.240;6.794;2023-07-02T04:54:19;31.40;;;13.83;;
5569;SDS011;2808;51.240;6.794;2023-07-02T04:56:47;41.20;;;15.17;;
5569;SDS011;2808;51.240;6.794;2023-07-02T04:59:14;29.63;;;14.23;;
5569;SDS011;2808;51.240;6.794;2023-07-02T05:01:41;36.03;;;15.73;;
5569;SDS011;2808;51.240;6.794;2023-07-02T05:04:10;36.70;;;15.33;;
5569;SDS011;2808;51.240;6.794;2023-07-02T05:06:38;38.00;;;15.20;;
5569;SDS011;2808;51.240;6.794;2023-07-02T05:09:05;36.30;;;16.90;;
5569;SDS011;2808;51.240;6.794;2023-07-02T05:11:32;38.67;;;15.53;;
5569;SDS011;2808;51.240;6.794;2023-07-02T05:14:00;36.63;;;15.60;;
5569;SDS011;2808;51.240;6.794;2023-07-02T05:16:27;40.43;;;15.53;;
5569;SDS011;2808;51.240;6.794;2023-07-02T05:18:55;37.00;;;15.20;;
5569;SDS011;2808;51.240;6.794;2023-07-02T05:21:24;37.53;;;16.20;;
5569;SDS011;2808;51.240;6.794;2023-07-02T05:23:51;43.27;;;17.50;;
5569;SDS011;2808;51.240;6.794;2023-07-02T05:26:19;32.87;;;15.83;;
5569;SDS011;2808;51.240;6.794;2023-07-02T05:28:46;34.67;;;15.80;;
5569;SDS011;2808;51.240;6.794;2023-07-02T05:31:13;41.47;;;16.40;;
5569;SDS011;2808;51.240;6.794;2023-07-02T05:33:41;37.23;;;17.17;;
5569;SDS011;2808;51.240;6.794;2023-07-02T05:36:08;42.33;;;17.07;;
5569;SDS011;2808;51.240;6.794;2023-07-02T05:38:37;45.40;;;17.07;;
5569;SDS011;2808;51.240;6.794;2023-07-02T05:41:04;34.43;;;15.97;;
5569;SDS011;2808;51.240;6.794;2023-07-02T05:43:31;37.00;;;16.27;;
5569;SDS011;2808;51.240;6.794;2023-07-02T05:45:59;43.10;;;16.67;;
5569;SDS011;2808;51.240;6.794;2023-07-02T05:48:26;38.20;;;16.67;;
5569;SDS011;2808;51.240;6.794;2023-07-02T05:50:54;40.20;;;16.90;;
5569;SDS011;2808;51.240;6.794;2023-07-02T05:53:22;35.90;;;17.00;;
5569;SDS011;2808;51.240;6.794;2023-07-02T05:55:50;40.10;;;16.90;;
5569;SDS011;2808;51.240;6.794;2023-07-02T05:58:18;39.77;;;16.80;;
5569;SDS011;2808;51.240;6.794;2023-07-02T06:00:46;34.97;;;17.30;;
5569;SDS011;2808;51.240;6.794;2023-07-02T06:03:14;40.20;;;17.53;;
5569;SDS011;2808;51.240;6.794;2023-07-02T06:05:45;41.43;;;17.33;;
5569;SDS011;2808;51.240;6.794;2023-07-02T06:08:17;39.90;;;17.80;;
5569;SDS011;2808;51.240;6.794;2023-07-02T06:10:45;42.43;;;16.77;;
5569;SDS011;2808;51.240;6.794;2023-07-02T06:13:14;43.30;;;16.50;;
5569;SDS011;2808;51.240;6.794;2023-07-02T06:15:42;34.40;;;16.73;;
5569;SDS011;2808;51.240;6.794;2023-07-02T06:18:12;34.37;;;15.87;;
5569;SDS011;2808;51.240;6.794;2023-07-02T06:20:39;36.37;;;14.93;;
5569;SDS011;2808;51.240;6.794;2023-07-02T06:23:06;34.13;;;15.30;;
5569;SDS011;2808;51.240;6.794;2023-07-02T06:25:34;33.47;;;14.53;;
5569;SDS011;2808;51.240;6.794;2023-07-02T06:28:01;31.77;;;16.10;;
5569;SDS011;2808;51.240;6.794;2023-07-02T06:30:30;37.93;;;14.87;;
5569;SDS011;2808;51.240;6.794;2023-07-02T06:32:57;34.47;;;15.07;;
5569;SDS011;2808;51.240;6.794;2023-07-02T06:35:24;36.50;;;15.40;;
5569;SDS011;2808;51.240;6.794;2023-07-02T06:37:54;33.00;;;15.00;;
5569;SDS011;2808;51.240;6.794;2023-07-02T06:40:22;32.03;;;15.73;;
5569;SDS011;2808;51.240;6.794;2023-07-02T06:42:49;39.17;;;16.27;;
5569;SDS011;2808;51.240;6.794;2023-07-02T06:45:17;32.67;;;14.77;;
5569;SDS011;2808;51.240;6.794;2023-07-02T06:47:45;37.73;;;15.07;;
5569;SDS011;2808;51.240;6.794;2023-07-02T06:50:13;35.90;;;15.47;;
5569;SDS011;2808;51.240;6.794;2023-07-02T06:52:40;31.33;;;15.60;;
5569;SDS011;2808;51.240;6.794;2023-07-02T06:55:08;34.90;;;14.77;;
5569;SDS011;2808;51.240;6.794;2023-07-02T06:57:35;33.57;;;14.80;;
5569;SDS011;2808;51.240;6.794;2023-07-02T07:00:09;31.63;;;14.40;;
5569;SDS011;2808;51.240;6.794;2023-07-02T07:02:38;33.90;;;15.30;;
5569;SDS011;2808;51.240;6.794;2023-07-02T07:05:06;31.20;;;13.80;;
5569;SDS011;2808;51.240;6.794;2023-07-02T07:07:34;28.60;;;14.60;;
5569;SDS011;2808;51.240;6.794;2023-07-02T07:10:02;29.90;;;13.83;;
5569;SDS011;2808;51.240;6.794;2023-07-02T07:12:30;30.87;;;13.57;;
5569;SDS011;2808;51.240;6.794;2023-07-02T07:14:57;32.67;;;14.27;;
5569;SDS011;2808;51.240;6.794;2023-07-02T07:17:24;42.37;;;14.20;;
5569;SDS011;2808;51.240;6.794;2023-07-02T07:19:52;33.50;;;10.93;;
5569;SDS011;2808;51.240;6.794;2023-07-02T07:22:20;29.27;;;12.40;;
5569;SDS011;2808;51.240;6.794;2023-07-02T07:24:48;33.53;;;12.37;;
5569;SDS011;2808;51.240;6.794;2023-07-02T07:27:15;27.87;;;12.90;;
5569;SDS011;2808;51.240;6.794;2023-07-02T07:29:43;28.37;;;12.03;;
5569;SDS011;2808;51.240;6.794;2023-07-02T07:32:10;28.67;;;11.50;;
5569;SDS011;2808;51.240;6.794;2023-07-02T07:34:37;28.67;;;12.93;;
5569;SDS011;2808;51.240;6.794;2023-07-02T07:37:05;31.03;;;13.70;;
5569;SDS011;2808;51.240;6.794;2023-07-02T07:39:34;28.23;;;13.17;;
5569;SDS011;2808;51.240;6.794;2023-07-02T07:42:02;28.90;;;13.23;;
5569;SDS011;2808;51.240;6.794;2023-07-02T07:44:30;33.93;;;12.63;;
5569;SDS011;2808;51.240;6.794;2023-07-02T07:46:57;27.57;;;12.53;;
5569;SDS011;2808;51.240;6.794;2023-07-02T07:49:25;29.60;;;14.67;;
5569;SDS011;2808;51.240;6.794;2023-07-02T07:51:52;29.53;;;13.20;;
5569;SDS011;2808;51.240;6.794;2023-07-02T07:54:20;32.30;;;12.33;;
5569;SDS011;2808;51.240;6.794;2023-07-02T07:56:48;29.13;;;11.83;;
5569;SDS011;2808;51.240;6.794;2023-07-02T07:59:16;34.37;;;13.70;;
5569;SDS011;2808;51.240;6.794;2023-07-02T08:01:43;29.87;;;13.73;;
5569;SDS011;2808;51.240;6.794;2023-07-02T08:04:11;29.70;;;14.37;;
5569;SDS011;2808;51.240;6.794;2023-07-02T08:06:58;34.20;;;14.73;;
5569;SDS011;2808;51.240;6.794;2023-07-02T08:09:31;30.17;;;13.77;;
5569;SDS011;2808;51.240;6.794;2023-07-02T08:12:17;28.97;;;13.17;;
5569;SDS011;2808;51.240;6.794;2023-07-02T08:14:44;33.63;;;12.13;;
5569;SDS011;2808;51.240;6.794;2023-07-02T08:17:15;29.90;;;12.17;;
5569;SDS011;2808;51.240;6.794;2023-07-02T08:19:45;38.43;;;14.30;;
5569;SDS011;2808;51.240;6.794;2023-07-02T08:22:13;38.03;;;13.30;;
5569;SDS011;2808;51.240;6.794;2023-07-02T08:24:40;33.33;;;15.50;;
5569;SDS011;2808;51.240;6.794;2023-07-02T08:27:08;32.97;;;13.10;;
5569;SDS011;2808;51.240;6.794;2023-07-02T08:29:40;31.67;;;13.43;;
5569;SDS011;2808;51.240;6.794;2023-07-02T08:32:07;36.57;;;14.37;;
5569;SDS011;2808;51.240;6.794;2023-07-02T08:34:35;34.57;;;14.20;;
5569;SDS011;2808;51.240;6.794;2023-07-02T08:37:02;28.33;;;12.57;;
5569;SDS011;2808;51.240;6.794;2023-07-02T08:39:30;35.87;;;13.50;;
5569;SDS011;2808;51.240;6.794;2023-07-02T08:41:57;34.63;;;13.37;;
5569;SDS011;2808;51.240;6.794;2023-07-02T08:44:25;32.93;;;12.60;;
5569;SDS011;2808;51.240;6.794;2023-07-02T08:46:55;30.23;;;12.63;;
5569;SDS011;2808;51.240;6.794;2023-07-02T08:49:22;43.47;;;20.40;;
5569;SDS011;2808;51.240;6.794;2023-07-02T08:51:56;40.70;;;17.40;;
5569;SDS011;2808;51.240;6.794;2023-07-02T08:54:29;37.77;;;15.70;;
5569;SDS011;2808;51.240;6.794;2023-07-02T08:59:44;31.73;;;12.90;;
5569;SDS011;2808;51.240;6.794;2023-07-02T09:02:13;29.30;;;11.73;;
5569;SDS011;2808;51.240;6.794;2023-07-02T09:08:06;35.67;;;13.67;;
5569;SDS011;2808;51.240;6.794;2023-07-02T09:11:06;26.90;;;12.00;;
5569;SDS011;2808;51.240;6.794;2023-07-02T09:14:02;29.63;;;11.47;;
5569;SDS011;2808;51.240;6.794;2023-07-02T09:19:47;31.50;;;11.70;;
5569;SDS011;2808;51.240;6.794;2023-07-02T09:22:57;28.23;;;12.30;;
5569;SDS011;2808;51.240;6.794;2023-07-02T09:25:40;27.57;;;12.57;;
5569;SDS011;2808;51.240;6.794;2023-07-02T09:29:16;32.70;;;13.47;;
5569;SDS011;2808;51.240;6.794;2023-07-02T09:31:55;30.63;;;13.37;;
5569;SDS011;2808;51.240;6.794;2023-07-02T09:34:35;32.77;;;13.20;;
5569;SDS011;2808;51.240;6.794;2023-07-02T09:37:14;28.90;;;13.50;;
5569;SDS011;2808;51.240;6.794;2023-07-02T09:40:29;34.43;;;12.40;;
5569;SDS011;2808;51.240;6.794;2023-07-02T09:53:19;45.43;;;18.40;;
5569;SDS011;2808;51.240;6.794;2023-07-02T09:56:28;33.90;;;14.70;;
5569;SDS011;2808;51.240;6.794;2023-07-02T09:58:56;37.83;;;15.93;;
5569;SDS011;2808;51.240;6.794;2023-07-02T10:01:26;33.00;;;14.77;;
5569;SDS011;2808;51.240;6.794;2023-07-02T10:03:54;33.30;;;16.00;;
5569;SDS011;2808;51.240;6.794;2023-07-02T10:06:25;37.87;;;15.60;;
5569;SDS011;2808;51.240;6.794;2023-07-02T10:09:49;36.40;;;16.80;;
5569;SDS011;2808;51.240;6.794;2023-07-02T10:12:24;31.43;;;12.80;;
5569;SDS011;2808;51.240;6.794;2023-07-02T10:15:23;35.77;;;12.43;;
5569;SDS011;2808;51.240;6.794;2023-07-02T10:17:55;27.83;;;10.87;;
5569;SDS011;2808;51.240;6.794;2023-07-02T10:20:34;28.73;;;11.23;;
5569;SDS011;2808;51.240;6.794;2023-07-02T10:26:17;26.30;;;10.00;;
5569;SDS011;2808;51.240;6.794;2023-07-02T10:29:00;24.40;;;9.70;;
5569;SDS011;2808;51.240;6.794;2023-07-02T10:37:46;25.60;;;10.57;;
5569;SDS011;2808;51.240;6.794;2023-07-02T10:40:14;26.60;;;9.80;;
5569;SDS011;2808;51.240;6.794;2023-07-02T10:42:46;18.90;;;8.67;;
5569;SDS011;2808;51.240;6.794;2023-07-02T10:45:14;25.57;;;9.43;;
5569;SDS011;2808;51.240;6.794;2023-07-02T10:47:42;27.33;;;10.50;;
5569;SDS011;2808;51.240;6.794;2023-07-02T10:50:14;21.77;;;9.80;;
5569;SDS011;2808;51.240;6.794;2023-07-02T10:52:42;21.47;;;8.73;;
5569;SDS011;2808;51.240;6.794;2023-07-02T10:55:10;21.60;;;8.70;;
5569;SDS011;2808;51.240;6.794;2023-07-02T10:57:44;26.07;;;8.73;;
5569;SDS011;2808;51.240;6.794;2023-07-02T11:00:51;24.17;;;8.70;;
5569;SDS011;2808;51.240;6.794;2023-07-02T11:03:54;24.73;;;7.60;;
5569;SDS011;2808;51.240;6.794;2023-07-02T11:06:58;23.03;;;7.90;;
5569;SDS011;2808;51.240;6.794;2023-07-02T11:09:32;20.97;;;8.13;;
5569;SDS011;2808;51.240;6.794;2023-07-02T11:12:03;19.13;;;8.50;;
5569;SDS011;2808;51.240;6.794;2023-07-02T11:14:42;20.40;;;8.23;;
5569;SDS011;2808;51.240;6.794;2023-07-02T12:01:04;22.70;;;8.53;;
5569;SDS011;2808;51.240;6.794;2023-07-02T12:03:34;24.57;;;8.70;;
5569;SDS011;2808;51.240;6.794;2023-07-02T12:06:11;24.10;;;8.03;;
5569;SDS011;2808;51.240;6.794;2023-07-02T12:08:48;25.00;;;8.90;;
5569;SDS011;2808;51.240;6.794;2023-07-02T12:11:19;23.93;;;10.67;;
5569;SDS011;2808;51.240;6.794;2023-07-02T12:13:53;22.47;;;9.20;;
5569;SDS011;2808;51.240;6.794;2023-07-02T12:17:01;26.10;;;8.40;;
5569;SDS011;2808;51.240;6.794;2023-07-02T12:19:24;24.07;;;8.23;;
5569;SDS011;2808;51.240;6.794;2023-07-02T12:21:58;26.43;;;9.17;;
5569;SDS011;2808;51.240;6.794;2023-07-02T12:28:16;24.17;;;8.47;;
5569;SDS011;2808;51.240;6.794;2023-07-02T12:30:51;23.07;;;8.33;;
5569;SDS011;2808;51.240;6.794;2023-07-02T12:33:21;22.67;;;8.03;;
5569;SDS011;2808;51.240;6.794;2023-07-02T12:35:54;20.60;;;9.83;;
5569;SDS011;2808;51.240;6.794;2023-07-02T12:38:21;19.03;;;7.83;;
5569;SDS011;2808;51.240;6.794;2023-07-02T12:40:49;16.73;;;7.30;;
5569;SDS011;2808;51.240;6.794;2023-07-02T12:43:16;20.90;;;8.33;;
5569;SDS011;2808;51.240;6.794;2023-07-02T12:45:45;20.17;;;7.77;;
5569;SDS011;2808;51.240;6.794;2023-07-02T12:48:14;18.53;;;8.60;;
5569;SDS011;2808;51.240;6.794;2023-07-02T12:50:41;18.57;;;8.17;;
5569;SDS011;2808;51.240;6.794;2023-07-02T12:53:19;18.73;;;7.97;;
5569;SDS011;2808;51.240;6.794;2023-07-02T12:55:46;15.23;;;6.63;;
5569;SDS011;2808;51.240;6.794;2023-07-02T12:58:14;15.70;;;7.43;;
5569;SDS011;2808;51.240;6.794;2023-07-02T13:00:42;21.20;;;9.27;;
5569;SDS011;2808;51.240;6.794;2023-07-02T13:03:11;20.13;;;9.50;;
5569;SDS011;2808;51.240;6.794;2023-07-02T13:05:43;18.37;;;8.00;;
5569;SDS011;2808;51.240;6.794;2023-07-02T13:08:10;15.50;;;7.20;;
5569;SDS011;2808;51.240;6.794;2023-07-02T13:10:38;19.70;;;7.90;;
5569;SDS011;2808;51.240;6.794;2023-07-02T13:13:06;21.60;;;8.17;;
5569;SDS011;2808;51.240;6.794;2023-07-02T13:15:33;21.90;;;7.57;;
5569;SDS011;2808;51.240;6.794;2023-07-02T13:18:01;20.90;;;7.53;;
5569;SDS011;2808;51.240;6.794;2023-07-02T13:20:30;19.23;;;7.63;;
5569;SDS011;2808;51.240;6.794;2023-07-02T13:22:58;16.83;;;7.50;;
5569;SDS011;2808;51.240;6.794;2023-07-02T13:25:27;20.57;;;8.20;;
5569;SDS011;2808;51.240;6.794;2023-07-02T13:27:55;19.87;;;8.00;;
5569;SDS011;2808;51.240;6.794;2023-07-02T13:30:22;19.60;;;8.53;;
5569;SDS011;2808;51.240;6.794;2023-07-02T13:32:53;20.27;;;8.00;;
5569;SDS011;2808;51.240;6.794;2023-07-02T13:35:21;18.90;;;7.93;;
5569;SDS011;2808;51.240;6.794;2023-07-02T13:37:50;20.67;;;7.73;;
5569;SDS011;2808;51.240;6.794;2023-07-02T13:40:17;46.93;;;7.97;;
5569;SDS011;2808;51.240;6.794;2023-07-02T13:42:45;22.63;;;8.47;;
5569;SDS011;2808;51.240;6.794;2023-07-02T13:45:13;23.87;;;8.10;;
5569;SDS011;2808;51.240;6.794;2023-07-02T13:47:40;19.53;;;8.33;;
5569;SDS011;2808;51.240;6.794;2023-07-02T13:50:08;27.90;;;8.77;;
5569;SDS011;2808;51.240;6.794;2023-07-02T13:52:37;19.33;;;7.53;;
5569;SDS011;2808;51.240;6.794;2023-07-02T13:55:06;20.53;;;8.30;;
5569;SDS011;2808;51.240;6.794;2023-07-02T13:57:34;20.53;;;7.40;;
5569;SDS011;2808;51.240;6.794;2023-07-02T14:00:03;21.93;;;7.67;;
5569;SDS011;2808;51.240;6.794;2023-07-02T14:02:32;21.70;;;8.73;;
5569;SDS011;2808;51.240;6.794;2023-07-02T14:04:59;17.67;;;8.33;;
5569;SDS011;2808;51.240;6.794;2023-07-02T14:07:27;24.20;;;8.40;;
5569;SDS011;2808;51.240;6.794;2023-07-02T14:09:54;20.77;;;7.73;;
5569;SDS011;2808;51.240;6.794;2023-07-02T14:12:22;19.03;;;8.23;;
5569;SDS011;2808;51.240;6.794;2023-07-02T14:14:50;29.77;;;9.10;;
5569;SDS011;2808;51.240;6.794;2023-07-02T14:17:19;22.53;;;8.53;;
5569;SDS011;2808;51.240;6.794;2023-07-02T14:19:47;25.10;;;10.10;;
5569;SDS011;2808;51.240;6.794;2023-07-02T14:22:14;25.97;;;8.30;;
5569;SDS011;2808;51.240;6.794;2023-07-02T14:24:41;17.23;;;7.90;;
5569;SDS011;2808;51.240;6.794;2023-07-02T14:27:10;22.60;;;8.93;;
5569;SDS011;2808;51.240;6.794;2023-07-02T14:29:37;26.67;;;8.80;;
5569;SDS011;2808;51.240;6.794;2023-07-02T14:32:05;22.47;;;8.87;;
5569;SDS011;2808;51.240;6.794;2023-07-02T14:34:35;23.30;;;9.20;;
5569;SDS011;2808;51.240;6.794;2023-07-02T14:37:02;19.30;;;9.20;;
5569;SDS011;2808;51.240;6.794;2023-07-02T14:39:30;24.73;;;9.60;;
5569;SDS011;2808;51.240;6.794;2023-07-02T14:41:59;22.87;;;9.00;;
5569;SDS011;2808;51.240;6.794;2023-07-02T14:44:26;24.10;;;9.50;;
5569;SDS011;2808;51.240;6.794;2023-07-02T14:46:54;32.80;;;9.43;;
5569;SDS011;2808;51.240;6.794;2023-07-02T14:49:47;23.60;;;9.57;;
5569;SDS011;2808;51.240;6.794;2023-07-02T14:52:17;29.13;;;9.67;;
5569;SDS011;2808;51.240;6.794;2023-07-02T14:54:50;25.10;;;10.00;;
5569;SDS011;2808;51.240;6.794;2023-07-02T14:57:18;24.00;;;10.07;;
5569;SDS011;2808;51.240;6.794;2023-07-02T14:59:47;23.27;;;10.30;;
5569;SDS011;2808;51.240;6.794;2023-07-02T15:02:15;29.80;;;9.47;;
5569;SDS011;2808;51.240;6.794;2023-07-02T15:04:43;26.50;;;10.00;;
5569;SDS011;2808;51.240;6.794;2023-07-02T15:07:15;26.93;;;10.20;;
5569;SDS011;2808;51.240;6.794;2023-07-02T15:09:43;25.87;;;9.60;;
5569;SDS011;2808;51.240;6.794;2023-07-02T15:12:16;23.97;;;9.17;;
5569;SDS011;2808;51.240;6.794;2023-07-02T15:14:45;27.50;;;9.53;;
5569;SDS011;2808;51.240;6.794;2023-07-02T15:17:13;26.63;;;10.80;;
5569;SDS011;2808;51.240;6.794;2023-07-02T15:19:41;36.33;;;17.63;;
5569;SDS011;2808;51.240;6.794;2023-07-02T15:22:20;20.30;;;8.87;;
5569;SDS011;2808;51.240;6.794;2023-07-02T15:24:59;26.07;;;9.00;;
5569;SDS011;2808;51.240;6.794;2023-07-02T15:27:33;22.87;;;9.30;;
5569;SDS011;2808;51.240;6.794;2023-07-02T15:30:00;22.63;;;8.40;;
5569;SDS011;2808;51.240;6.794;2023-07-02T15:32:33;24.70;;;9.17;;
5569;SDS011;2808;51.240;6.794;2023-07-02T15:35:00;20.13;;;9.17;;
5569;SDS011;2808;51.240;6.794;2023-07-02T15:37:29;23.67;;;9.13;;
5569;SDS011;2808;51.240;6.794;2023-07-02T15:39:57;27.80;;;9.50;;
5569;SDS011;2808;51.240;6.794;2023-07-02T15:42:26;20.47;;;8.57;;
5569;SDS011;2808;51.240;6.794;2023-07-02T15:45:25;21.83;;;10.97;;
5569;SDS011;2808;51.240;6.794;2023-07-02T15:47:53;26.90;;;10.93;;
5569;SDS011;2808;51.240;6.794;2023-07-02T15:50:21;27.37;;;9.70;;
5569;SDS011;2808;51.240;6.794;2023-07-02T15:52:51;24.20;;;8.77;;
5569;SDS011;2808;51.240;6.794;2023-07-02T15:55:18;25.83;;;9.70;;
5569;SDS011;2808;51.240;6.794;2023-07-02T15:57:46;22.10;;;9.73;;
5569;SDS011;2808;51.240;6.794;2023-07-02T16:00:19;19.40;;;8.43;;
5569;SDS011;2808;51.240;6.794;2023-07-02T16:02:50;23.83;;;9.47;;
5569;SDS011;2808;51.240;6.794;2023-07-02T16:05:18;26.00;;;9.50;;
5569;SDS011;2808;51.240;6.794;2023-07-02T16:07:45;27.23;;;9.70;;
5569;SDS011;2808;51.240;6.794;2023-07-02T16:10:14;26.20;;;10.20;;
5569;SDS011;2808;51.240;6.794;2023-07-02T16:12:42;27.20;;;11.17;;
5569;SDS011;2808;51.240;6.794;2023-07-02T16:15:09;22.77;;;8.87;;
5569;SDS011;2808;51.240;6.794;2023-07-02T16:17:37;28.20;;;8.73;;
5569;SDS011;2808;51.240;6.794;2023-07-02T16:20:05;25.47;;;9.40;;
5569;SDS011;2808;51.240;6.794;2023-07-02T16:25:42;22.30;;;9.70;;
5569;SDS011;2808;51.240;6.794;2023-07-02T16:28:19;26.57;;;9.50;;
5569;SDS011;2808;51.240;6.794;2023-07-02T16:31:09;26.30;;;10.10;;
5569;SDS011;2808;51.240;6.794;2023-07-02T16:34:16;21.77;;;10.03;;